Sevenisland Tomo — JM5778 — position and weather

sailwx.info

Track history (hours):
 
Tides and Currents Weather Stations Pressure Air Temp Water Temp Dewpoint Dewpoint Depression Visibility Wind Speed Wind Dir Waves Ship Positions

Sevenisland Tomo

Last reported at 2018-Jun-25 01:26 UTC. Time now 2018-Jun-25 05:41 UTC.
Position N 34°54' E 139°31'.

Length 27 m; draft 5.4 m.

MMSI: 431009153.

Date/timePositionNaut miles runAvg speedWind from/ knotsBaromVisibWave heightAir tempDewpointWater temp
2018-Jun-25 01:26N 34°54' E 139°31'1740.0
2018-Jun-25 01:00N 35°07' E 139°44'1734.6
2018-Jun-25 00:31N 35°24' E 139°47'1121.7
2018-Jun-25 00:00N 35°35' E 139°47'4 8.4
2018-Jun-24 23:29N 35°39' E 139°46'1 0.1
2018-Jun-24 09:02N 35°38' E 139°46'0 7.9
2018-Jun-24 09:00N 35°39' E 139°46'5 9.1
2018-Jun-24 08:29N 35°34' E 139°48'1328.3
2018-Jun-24 08:01N 35°21' E 139°45'1937.0
2018-Jun-24 07:30N 35°03' E 139°41'2419.0
2018-Jun-24 06:13N 34°55' E 139°13'1241.6
2018-Jun-24 05:56N 35°05' E 139°06'1 0.7
2018-Jun-24 04:17N 35°05' E 139°05'0 0.0
2018-Jun-24 03:54N 35°05' E 139°05'0 0.4
2018-Jun-24 03:30N 35°06' E 139°05'33 1.5
2018-Jun-23 06:15N 35°07' E 139°45'937.5
2018-Jun-23 06:00N 35°16' E 139°47'1734.1
2018-Jun-23 05:31N 35°33' E 139°50'7 3.0
2018-Jun-23 03:08N 35°39' E 139°46'535.4
2018-Jun-23 03:00N 35°35' E 139°48'1733.4
2018-Jun-23 02:30N 35°18' E 139°45'10 4.6
2018-Jun-23 00:16N 35°08' E 139°45'936.3
2018-Jun-23 00:00N 35°17' E 139°46'1733.4
2018-Jun-22 23:31N 35°34' E 139°49'5 5.7
2018-Jun-22 22:36N 35°38' E 139°46'3 0.2
2018-Jun-22 08:28N 35°35' E 139°48'1532.9
2018-Jun-22 08:00N 35°20' E 139°45'12 0.4
2018-Jun-21 06:15N 35°09' E 139°47'835.6
2018-Jun-21 06:00N 35°17' E 139°46'1733.3
2018-Jun-21 05:31N 35°34' E 139°49'6 2.7
2018-Jun-21 03:06N 35°39' E 139°46'222.7
2018-Jun-21 03:00N 35°37' E 139°46'1633.6
2018-Jun-21 02:30N 35°21' E 139°45'11 4.7
2018-Jun-21 00:15N 35°10' E 139°46'831.6
2018-Jun-21 00:01N 35°18' E 139°46'1733.5
2018-Jun-20 23:30N 35°34' E 139°49'5 6.1
2018-Jun-20 22:44N 35°38' E 139°46'0 0.0
2018-Jun-20 08:48N 35°38' E 139°46'410.6
2018-Jun-20 08:27N 35°35' E 139°48'1532.8
2018-Jun-20 08:01N 35°21' E 139°46'11 0.4
2018-Jun-19 06:05N 35°10' E 139°47'341.5
2018-Jun-19 06:01N 35°13' E 139°47'2038.9
2018-Jun-19 05:30N 35°33' E 139°50'6 2.6
2018-Jun-19 03:01N 35°38' E 139°46'137.3
2018-Jun-19 03:00N 35°38' E 139°46'1835.7
2018-Jun-19 02:30N 35°20' E 139°45'12 4.9
2018-Jun-19 00:07N 35°08' E 139°46'539.7
2018-Jun-19 00:00N 35°13' E 139°47'1938.8
2018-Jun-18 23:30N 35°32' E 139°50'811.4
2018-Jun-18 22:50N 35°39' E 139°46'1 0.1
2018-Jun-18 08:32N 35°38' E 139°46'1 7.1
2018-Jun-18 08:27N 35°39' E 139°46'4 7.7
2018-Jun-18 07:59N 35°35' E 139°47'1838.9
2018-Jun-18 07:30N 35°17' E 139°46'9 1.3
2018-Jun-18 00:39N 35°08' E 139°45'638.7
2018-Jun-18 00:30N 35°13' E 139°47'1938.7
2018-Jun-18 00:00N 35°33' E 139°50'711.0
2018-Jun-17 23:21N 35°39' E 139°46'1 0.0
2018-Jun-17 08:47N 35°38' E 139°46'1 2.6
2018-Jun-17 08:29N 35°39' E 139°46'1735.2
2018-Jun-17 08:01N 35°22' E 139°46'12 1.7
2018-Jun-17 00:45N 35°10' E 139°45'411.2
2018-Jun-17 00:26N 35°13' E 139°43'1228.3
2018-Jun-17 00:01N 35°25' E 139°47'1412.3
2018-Jun-16 22:51N 35°39' E 139°46'2 0.2
2018-Jun-16 08:25N 35°37' E 139°46'1537.1
2018-Jun-16 08:00N 35°22' E 139°46'14 0.5
2018-Jun-15 06:12N 35°08' E 139°45'838.3
2018-Jun-15 06:01N 35°15' E 139°47'1937.5
2018-Jun-15 05:30N 35°34' E 139°49'6 2.4
2018-Jun-15 03:04N 35°39' E 139°46'435.7
2018-Jun-15 02:57N 35°35' E 139°48'1737.4
2018-Jun-15 02:30N 35°18' E 139°45'  
Track history (hours):
 
Tides and Currents Weather Stations Pressure Air Temp Water Temp Dewpoint Dewpoint Depression Visibility Wind Speed Wind Dir Waves Ship Positions

Sevenisland Tomo

Last reported at 2018-Jun-25 01:26 UTC. Time now 2018-Jun-25 05:41 UTC.
Position N 34°54' E 139°31'.

Length 27 m; draft 5.4 m.

MMSI: 431009153.

Date/timePositionNaut miles runAvg speedWind from/ knotsBaromVisibWave heightAir tempDewpointWater temp
2018-Jun-25 01:26N 34°54' E 139°31'1740.0
2018-Jun-25 01:00N 35°07' E 139°44'1734.6
2018-Jun-25 00:31N 35°24' E 139°47'1121.7
2018-Jun-25 00:00N 35°35' E 139°47'4 8.4
2018-Jun-24 23:29N 35°39' E 139°46'1 0.1
2018-Jun-24 09:02N 35°38' E 139°46'0 7.9
2018-Jun-24 09:00N 35°39' E 139°46'5 9.1
2018-Jun-24 08:29N 35°34' E 139°48'1328.3
2018-Jun-24 08:01N 35°21' E 139°45'1937.0
2018-Jun-24 07:30N 35°03' E 139°41'2419.0
2018-Jun-24 06:13N 34°55' E 139°13'1241.6
2018-Jun-24 05:56N 35°05' E 139°06'1 0.7
2018-Jun-24 04:17N 35°05' E 139°05'0 0.0
2018-Jun-24 03:54N 35°05' E 139°05'0 0.4
2018-Jun-24 03:30N 35°06' E 139°05'33 1.5
2018-Jun-23 06:15N 35°07' E 139°45'937.5
2018-Jun-23 06:00N 35°16' E 139°47'1734.1
2018-Jun-23 05:31N 35°33' E 139°50'7 3.0
2018-Jun-23 03:08N 35°39' E 139°46'535.4
2018-Jun-23 03:00N 35°35' E 139°48'1733.4
2018-Jun-23 02:30N 35°18' E 139°45'10 4.6
2018-Jun-23 00:16N 35°08' E 139°45'936.3
2018-Jun-23 00:00N 35°17' E 139°46'1733.4
2018-Jun-22 23:31N 35°34' E 139°49'5 5.7
2018-Jun-22 22:36N 35°38' E 139°46'3 0.2
2018-Jun-22 08:28N 35°35' E 139°48'1532.9
2018-Jun-22 08:00N 35°20' E 139°45'12 0.4
2018-Jun-21 06:15N 35°09' E 139°47'835.6
2018-Jun-21 06:00N 35°17' E 139°46'1733.3
2018-Jun-21 05:31N 35°34' E 139°49'6 2.7
2018-Jun-21 03:06N 35°39' E 139°46'222.7
2018-Jun-21 03:00N 35°37' E 139°46'1633.6
2018-Jun-21 02:30N 35°21' E 139°45'11 4.7
2018-Jun-21 00:15N 35°10' E 139°46'831.6
2018-Jun-21 00:01N 35°18' E 139°46'1733.5
2018-Jun-20 23:30N 35°34' E 139°49'5 6.1
2018-Jun-20 22:44N 35°38' E 139°46'0 0.0
2018-Jun-20 08:48N 35°38' E 139°46'410.6
2018-Jun-20 08:27N 35°35' E 139°48'1532.8
2018-Jun-20 08:01N 35°21' E 139°46'11 0.4
2018-Jun-19 06:05N 35°10' E 139°47'341.5
2018-Jun-19 06:01N 35°13' E 139°47'2038.9
2018-Jun-19 05:30N 35°33' E 139°50'6 2.6
2018-Jun-19 03:01N 35°38' E 139°46'137.3
2018-Jun-19 03:00N 35°38' E 139°46'1835.7
2018-Jun-19 02:30N 35°20' E 139°45'12 4.9
2018-Jun-19 00:07N 35°08' E 139°46'539.7
2018-Jun-19 00:00N 35°13' E 139°47'1938.8
2018-Jun-18 23:30N 35°32' E 139°50'811.4
2018-Jun-18 22:50N 35°39' E 139°46'1 0.1
2018-Jun-18 08:32N 35°38' E 139°46'1 7.1
2018-Jun-18 08:27N 35°39' E 139°46'4 7.7
2018-Jun-18 07:59N 35°35' E 139°47'1838.9
2018-Jun-18 07:30N 35°17' E 139°46'9 1.3
2018-Jun-18 00:39N 35°08' E 139°45'638.7
2018-Jun-18 00:30N 35°13' E 139°47'1938.7
2018-Jun-18 00:00N 35°33' E 139°50'711.0
2018-Jun-17 23:21N 35°39' E 139°46'1 0.0
2018-Jun-17 08:47N 35°38' E 139°46'1 2.6
2018-Jun-17 08:29N 35°39' E 139°46'1735.2
2018-Jun-17 08:01N 35°22' E 139°46'12 1.7
2018-Jun-17 00:45N 35°10' E 139°45'411.2
2018-Jun-17 00:26N 35°13' E 139°43'1228.3
2018-Jun-17 00:01N 35°25' E 139°47'1412.3
2018-Jun-16 22:51N 35°39' E 139°46'2 0.2
2018-Jun-16 08:25N 35°37' E 139°46'1537.1
2018-Jun-16 08:00N 35°22' E 139°46'14 0.5
2018-Jun-15 06:12N 35°08' E 139°45'838.3
2018-Jun-15 06:01N 35°15' E 139°47'1937.5
2018-Jun-15 05:30N 35°34' E 139°49'6 2.4
2018-Jun-15 03:04N 35°39' E 139°46'435.7
2018-Jun-15 02:57N 35°35' E 139°48'1737.4
2018-Jun-15 02:30N 35°18' E 139°45'  

Dump ship's entire track history